Terminal Aerodrome Forecast
Issued by NWS Lubbock, TX

Home | Current Version | Previous Version | Text Only | Print | Product List | Glossary On
Versions: 1 2 3 4 5 6 7 8 9 10 11 12 13 14 15 16 17
000
FTUS44 KLUB 251723
TAFLBB
TAF
KLBB 251723Z 2518/2618 18006KT P6SM SCT040 BKN140 BKN220
     FM251900 13011KT P6SM BKN050
     FM260600 12010KT P6SM VCTS BKN040CB
     FM261600 VRB05KT P6SM SCT040 SCT150=

USA.gov is the U.S. government's official web portal to all federal, state and local government web resources and services.